createdAt,value
2018-10-19T00:00:38.957Z,38.73
2018-10-19T00:03:42.466Z,40.97
2018-10-19T00:06:50.106Z,42.87
2018-10-19T00:09:54.956Z,41.00
2018-10-19T00:12:58.447Z,42.85
2018-10-19T00:16:02.074Z,45.83
2018-10-19T00:19:06.087Z,43.40
2018-10-19T00:22:09.590Z,43.90
2018-10-19T00:25:13.141Z,43.67
2018-10-19T00:28:21.827Z,44.15
2018-10-19T00:31:25.330Z,40.73
2018-10-19T00:34:28.891Z,46.10
2018-10-19T00:37:32.507Z,41.70
2018-10-19T00:40:36.007Z,39.50
2018-10-19T00:43:39.552Z,43.53
2018-10-19T00:46:43.065Z,41.80
2018-10-19T00:49:46.598Z,40.57
2018-10-19T00:52:50.121Z,41.70
2018-10-19T00:55:53.656Z,42.00
2018-10-19T00:58:57.116Z,43.27
2018-10-19T01:02:00.665Z,37.58
2018-10-19T01:05:05.338Z,40.73
2018-10-19T01:08:09.604Z,43.83
2018-10-19T01:11:13.278Z,41.70
2018-10-19T01:14:16.761Z,38.50
2018-10-19T01:17:21.319Z,41.30
2018-10-19T01:20:25.001Z,36.50
2018-10-19T01:23:28.505Z,39.87
2018-10-19T01:26:32.039Z,40.05
2018-10-19T01:29:35.518Z,41.30
2018-10-19T01:32:39.370Z,38.47
2018-10-19T01:35:44.908Z,40.17
2018-10-19T01:38:49.400Z,38.78
2018-10-19T01:41:52.950Z,38.25
2018-10-19T01:44:56.471Z,40.80
2018-10-19T01:48:00.424Z,37.20
2018-10-19T01:51:04.066Z,36.58
2018-10-19T01:54:07.581Z,38.63
2018-10-19T01:57:11.089Z,37.80
2018-10-19T02:00:14.599Z,39.55
2018-10-19T02:03:18.199Z,38.70
2018-10-19T02:06:21.914Z,39.07
2018-10-19T02:09:25.352Z,39.55
2018-10-19T02:12:29.010Z,39.50
2018-10-19T02:15:33.503Z,40.30
2018-10-19T02:18:37.049Z,34.78
2018-10-19T02:21:40.720Z,35.53
2018-10-19T02:24:44.198Z,36.97
2018-10-19T02:27:47.902Z,38.07
2018-10-19T02:30:51.567Z,37.63
2018-10-19T02:33:55.015Z,38.30
2018-10-19T02:36:58.588Z,38.90
2018-10-19T02:40:02.256Z,38.95
2018-10-19T02:43:06.204Z,36.73
2018-10-19T02:46:09.783Z,35.43
2018-10-19T02:49:13.274Z,37.07
2018-10-19T02:52:16.778Z,34.43
2018-10-19T02:55:20.313Z,38.92
2018-10-19T02:58:23.864Z,36.83
2018-10-19T03:01:27.362Z,37.17
2018-10-19T03:04:30.777Z,37.67
2018-10-19T03:07:34.281Z,37.63
2018-10-19T03:10:37.826Z,38.00
2018-10-19T03:13:41.391Z,36.70
2018-10-19T03:16:45.118Z,36.63
2018-10-19T03:19:48.809Z,34.27
2018-10-19T03:22:52.645Z,35.23
2018-10-19T03:25:56.193Z,33.40
2018-10-19T03:29:03.581Z,37.57
2018-10-19T03:32:07.217Z,37.10
2018-10-19T03:35:10.786Z,38.27
2018-10-19T03:38:14.233Z,36.55
2018-10-19T03:41:17.808Z,37.50
2018-10-19T03:44:21.323Z,39.07
2018-10-19T03:47:24.874Z,36.20
2018-10-19T03:50:28.506Z,37.90
2018-10-19T03:53:32.207Z,36.20
2018-10-19T03:56:35.690Z,35.00
2018-10-19T03:59:44.603Z,40.33
2018-10-19T04:02:48.127Z,36.87
2018-10-19T04:05:51.653Z,35.10
2018-10-19T04:08:57.092Z,36.57
2018-10-19T04:12:00.687Z,38.63
2018-10-19T04:15:05.187Z,38.27
2018-10-19T04:18:08.677Z,35.47
2018-10-19T04:21:29.095Z,35.57
2018-10-19T04:24:39.649Z,38.37
2018-10-19T04:27:49.075Z,35.93
2018-10-19T04:30:54.005Z,38.10
2018-10-19T04:33:58.591Z,36.00
2018-10-19T04:37:05.099Z,34.53
2018-10-19T04:40:17.616Z,34.10
2018-10-19T04:43:21.186Z,33.70
2018-10-19T04:46:24.661Z,32.83
2018-10-19T04:49:30.237Z,33.07
2018-10-19T04:52:40.047Z,38.23
2018-10-19T04:55:43.697Z,32.47
2018-10-19T04:58:47.109Z,33.43
2018-10-19T05:01:50.504Z,35.80
2018-10-19T05:04:54.007Z,33.03
2018-10-19T05:07:57.609Z,35.37
2018-10-19T05:11:01.139Z,33.83
2018-10-19T05:14:04.542Z,34.30
2018-10-19T05:17:09.116Z,33.80
2018-10-19T05:20:13.476Z,35.57
2018-10-19T05:23:16.901Z,36.87
2018-10-19T05:26:24.641Z,34.77
2018-10-19T05:29:28.162Z,36.97
2018-10-19T05:32:31.679Z,37.30
2018-10-19T05:35:35.239Z,32.98
2018-10-19T05:38:38.782Z,34.40
2018-10-19T05:41:42.491Z,36.43
2018-10-19T05:44:45.997Z,34.53
2018-10-19T05:47:49.655Z,36.77
2018-10-19T05:50:53.163Z,35.27
2018-10-19T05:53:56.712Z,34.23
2018-10-19T05:57:00.281Z,33.63
2018-10-19T06:00:03.889Z,33.50
2018-10-19T06:03:08.439Z,58.50
2018-10-19T06:06:12.043Z,37.70
2018-10-19T06:09:15.452Z,68.20
2018-10-19T06:12:18.900Z,36.97
2018-10-19T06:15:22.457Z,39.13
2018-10-19T06:18:25.892Z,33.10
2018-10-19T06:21:29.404Z,32.80
2018-10-19T06:24:32.959Z,33.07
2018-10-19T06:27:36.399Z,34.13
2018-10-19T06:30:39.931Z,37.10
2018-10-19T06:33:43.504Z,32.60
2018-10-19T06:36:46.998Z,32.13
2018-10-19T06:39:50.596Z,38.83
2018-10-19T06:42:54.114Z,37.07
2018-10-19T06:45:57.675Z,34.20
2018-10-19T06:49:01.062Z,38.40
2018-10-19T06:52:04.546Z,40.73
2018-10-19T06:55:09.475Z,44.27
2018-10-19T06:58:13.193Z,40.50
2018-10-19T07:01:16.692Z,42.87
2018-10-19T07:04:20.231Z,43.30
2018-10-19T07:07:23.766Z,38.67
2018-10-19T07:10:27.325Z,42.60
2018-10-19T07:13:30.799Z,40.27
2018-10-19T07:16:34.612Z,39.40
2018-10-19T07:19:38.109Z,32.67
2018-10-19T07:22:41.693Z,38.47
2018-10-19T07:25:45.213Z,38.43
2018-10-19T07:28:48.695Z,34.37
2018-10-19T07:31:52.119Z,39.73
2018-10-19T07:34:55.616Z,33.73
2018-10-19T07:38:00.135Z,35.90
2018-10-19T07:41:03.680Z,36.70
2018-10-19T07:44:07.190Z,34.57
2018-10-19T07:47:10.794Z,42.77
2018-10-19T07:50:14.251Z,34.33
2018-10-19T07:53:17.698Z,37.83
2018-10-19T07:56:21.349Z,47.60
2018-10-19T07:59:24.897Z,40.73
2018-10-19T08:02:28.361Z,38.67
2018-10-19T08:05:32.016Z,38.97
2018-10-19T08:08:35.633Z,36.83
2018-10-19T08:11:39.270Z,40.03
2018-10-19T08:14:42.721Z,41.03
2018-10-19T08:17:46.259Z,40.03
2018-10-19T08:20:49.745Z,38.30
2018-10-19T08:23:54.259Z,46.33
2018-10-19T08:26:57.663Z,39.10
2018-10-19T08:30:01.266Z,46.33
2018-10-19T08:33:04.868Z,43.67
2018-10-19T08:36:08.585Z,43.73
2018-10-19T08:39:12.078Z,40.77
2018-10-19T08:42:15.683Z,44.93
2018-10-19T08:45:19.869Z,64.60
2018-10-19T08:48:23.470Z,50.50
2018-10-19T08:51:27.001Z,45.63
2018-10-19T08:54:30.669Z,44.10
2018-10-19T08:57:34.109Z,41.67
2018-10-19T09:00:37.725Z,38.87
2018-10-19T09:03:41.410Z,40.73
2018-10-19T09:06:44.647Z,40.87
2018-10-19T09:09:48.245Z,42.13
2018-10-19T09:12:51.773Z,34.87
2018-10-19T09:15:55.201Z,37.87
2018-10-19T09:18:58.737Z,38.93
2018-10-19T09:22:02.260Z,40.07
2018-10-19T09:25:05.789Z,42.63
2018-10-19T09:28:09.271Z,38.57
2018-10-19T09:31:12.692Z,39.40
2018-10-19T09:34:16.140Z,38.83
2018-10-19T09:37:19.659Z,40.77
2018-10-19T09:40:23.141Z,43.20
2018-10-19T09:43:26.499Z,40.90
2018-10-19T09:46:30.042Z,43.60
2018-10-19T09:49:33.522Z,46.60
2018-10-19T09:52:36.952Z,43.30
2018-10-19T09:55:40.428Z,42.47
2018-10-19T09:58:43.842Z,41.50
2018-10-19T10:01:47.220Z,41.37
2018-10-19T10:04:50.756Z,43.37
2018-10-19T10:07:54.436Z,47.57
2018-10-19T10:10:57.872Z,45.50
2018-10-19T10:14:01.224Z,46.77
2018-10-19T10:17:05.023Z,41.07
2018-10-19T10:20:08.739Z,39.90
2018-10-19T10:23:12.295Z,40.63
2018-10-19T10:26:15.908Z,42.23
2018-10-19T10:29:19.492Z,46.53
2018-10-19T10:32:23.115Z,43.53
2018-10-19T10:35:26.700Z,42.80
2018-10-19T10:38:30.258Z,40.60
2018-10-19T10:41:33.740Z,42.80
2018-10-19T10:44:37.312Z,40.63
2018-10-19T10:47:40.918Z,38.80
2018-10-19T10:50:44.488Z,37.67
2018-10-19T10:53:48.012Z,40.50
2018-10-19T10:56:51.528Z,38.87
2018-10-19T10:59:56.057Z,43.20
2018-10-19T11:02:59.612Z,42.87
2018-10-19T11:06:03.150Z,43.97
2018-10-19T11:09:09.705Z,39.53
2018-10-19T11:12:13.241Z,39.00
2018-10-19T11:15:16.833Z,37.60
2018-10-19T11:18:20.303Z,38.67
2018-10-19T11:21:23.854Z,39.77
2018-10-19T11:24:27.443Z,37.20
2018-10-19T11:27:30.913Z,40.90
2018-10-19T11:30:34.471Z,42.50
2018-10-19T11:33:37.931Z,38.20
2018-10-19T11:36:41.425Z,39.53
2018-10-19T11:40:48.280Z,40.73
2018-10-19T11:43:51.859Z,40.80
2018-10-19T11:46:59.926Z,41.23
2018-10-19T11:50:03.492Z,41.63
2018-10-19T11:53:07.112Z,41.23
2018-10-19T11:56:10.671Z,42.00
2018-10-19T11:59:14.135Z,36.80
2018-10-19T12:02:17.666Z,43.03
2018-10-19T12:05:21.184Z,40.50
2018-10-19T12:08:24.793Z,41.77
2018-10-19T12:11:28.451Z,35.43
2018-10-19T12:14:31.882Z,37.17
2018-10-19T12:17:35.413Z,38.60
2018-10-19T12:20:38.856Z,41.83
2018-10-19T12:23:42.542Z,39.67
2018-10-19T12:26:46.101Z,36.83
2018-10-19T12:29:49.679Z,35.30
2018-10-19T12:32:53.194Z,39.93
2018-10-19T12:35:56.719Z,39.87
2018-10-19T12:39:00.180Z,40.57
2018-10-19T12:42:03.616Z,35.80
2018-10-19T12:45:18.244Z,39.10
2018-10-19T12:48:21.584Z,39.37
2018-10-19T12:51:26.165Z,38.17
2018-10-19T12:54:29.830Z,39.57
2018-10-19T12:57:33.422Z,38.27
2018-10-19T13:00:36.854Z,35.47
2018-10-19T13:03:40.785Z,39.73
2018-10-19T13:06:44.258Z,38.50
2018-10-19T13:09:47.618Z,35.60
2018-10-19T13:12:53.970Z,39.90
2018-10-19T13:15:57.416Z,39.70
2018-10-19T13:19:00.925Z,34.60
2018-10-19T13:22:04.366Z,36.83
2018-10-19T13:25:07.848Z,38.60
2018-10-19T13:28:11.405Z,36.90
2018-10-19T13:31:14.907Z,36.77
2018-10-19T13:34:18.436Z,40.97
2018-10-19T13:37:21.912Z,32.50
2018-10-19T13:40:25.497Z,38.57
2018-10-19T13:43:28.968Z,35.93
2018-10-19T13:46:32.441Z,35.03
2018-10-19T13:49:35.848Z,38.93
2018-10-19T13:52:39.250Z,37.42
2018-10-19T13:55:42.711Z,36.23
2018-10-19T13:58:46.086Z,31.03
2018-10-19T14:01:49.613Z,37.27
2018-10-19T14:04:53.147Z,32.20
2018-10-19T14:07:56.612Z,33.00
2018-10-19T14:11:00.372Z,38.70
2018-10-19T14:14:03.872Z,34.47
2018-10-19T14:17:07.346Z,39.63
2018-10-19T14:20:12.240Z,34.77
2018-10-19T14:23:15.831Z,31.50
2018-10-19T14:26:19.246Z,31.90
2018-10-19T14:29:22.720Z,35.00
2018-10-19T14:32:26.191Z,30.50
2018-10-19T14:35:29.633Z,33.23
2018-10-19T14:38:33.004Z,30.27
2018-10-19T14:41:36.443Z,38.03
2018-10-19T14:44:40.149Z,28.83
2018-10-19T14:47:44.347Z,30.87
2018-10-19T14:50:47.874Z,32.57
2018-10-19T14:53:51.273Z,35.27
2018-10-19T14:56:54.923Z,33.50
2018-10-19T14:59:58.387Z,34.27
2018-10-19T15:03:01.918Z,34.40
2018-10-19T15:06:05.731Z,32.63
2018-10-19T15:09:10.975Z,29.53
2018-10-19T15:12:14.360Z,33.10
2018-10-19T15:15:21.053Z,32.30
2018-10-19T15:18:24.504Z,33.73
2018-10-19T15:21:27.946Z,40.37
2018-10-19T15:24:31.616Z,32.77
2018-10-19T15:27:35.063Z,36.90
2018-10-19T15:30:38.854Z,31.30
2018-10-19T15:33:42.439Z,34.97
2018-10-19T15:36:45.869Z,31.80
2018-10-19T15:39:49.315Z,38.73
2018-10-19T15:42:52.736Z,30.53
2018-10-19T15:45:56.101Z,26.60
2018-10-19T15:48:59.537Z,33.67
2018-10-19T15:52:03.008Z,30.13
2018-10-19T15:55:06.984Z,31.13
2018-10-19T15:58:10.456Z,30.07
2018-10-19T16:01:13.819Z,32.77
2018-10-19T16:04:17.224Z,28.57
2018-10-19T16:07:20.775Z,28.90
2018-10-19T16:10:24.279Z,30.73
2018-10-19T16:13:27.802Z,33.43
2018-10-19T16:16:31.351Z,30.10
2018-10-19T16:19:34.836Z,30.80
2018-10-19T16:22:38.796Z,27.30
2018-10-19T16:25:42.303Z,25.30
2018-10-19T16:28:45.833Z,26.10
2018-10-19T16:31:50.292Z,41.83
2018-10-19T16:34:53.866Z,29.67
2018-10-19T16:37:57.443Z,27.75
2018-10-19T16:41:00.944Z,36.53
2018-10-19T16:44:04.722Z,29.25
2018-10-19T16:47:08.171Z,32.48
2018-10-19T16:50:12.697Z,35.60
2018-10-19T16:53:16.283Z,34.37
2018-10-19T16:56:19.878Z,27.83
2018-10-19T16:59:23.464Z,28.53
2018-10-19T17:02:26.965Z,29.07
2018-10-19T17:05:30.405Z,33.03
2018-10-19T17:08:33.905Z,28.03
2018-10-19T17:11:37.477Z,28.60
2018-10-19T17:14:41.460Z,32.13
2018-10-19T17:17:45.056Z,29.87
2018-10-19T17:20:48.701Z,29.77
2018-10-19T17:23:53.328Z,31.67
2018-10-19T17:26:56.886Z,32.53
2018-10-19T17:30:01.388Z,31.87
2018-10-19T17:33:05.289Z,35.03
2018-10-19T17:36:08.795Z,29.80
2018-10-19T17:39:12.674Z,41.23
2018-10-19T17:42:16.188Z,28.27
2018-10-19T17:45:19.749Z,33.43
2018-10-19T17:48:23.337Z,31.37
2018-10-19T17:51:27.020Z,34.00
2018-10-19T17:54:30.591Z,32.03
2018-10-19T17:57:38.122Z,34.10
2018-10-19T18:00:41.699Z,35.83
2018-10-19T18:03:46.223Z,36.17
2018-10-19T18:06:49.909Z,30.07
2018-10-19T18:09:54.463Z,31.67
2018-10-19T18:12:58.031Z,29.47
2018-10-19T18:16:01.952Z,29.00
2018-10-19T18:19:06.802Z,29.57
2018-10-19T18:22:10.952Z,30.30
2018-10-19T18:25:14.351Z,33.73
2018-10-19T18:28:17.995Z,29.13
2018-10-19T18:31:21.600Z,34.53
2018-10-19T18:34:25.384Z,28.80
2018-10-19T18:37:29.331Z,29.75
2018-10-19T18:40:33.007Z,32.28
2018-10-19T18:43:37.770Z,29.80
2018-10-19T18:46:41.624Z,33.27
2018-10-19T18:49:45.154Z,34.83
2018-10-19T18:52:48.967Z,37.20
2018-10-19T18:55:52.691Z,33.80
2018-10-19T18:58:56.279Z,34.47
2018-10-19T19:01:59.822Z,35.50
2018-10-19T19:05:03.316Z,34.53
2018-10-19T19:08:06.985Z,36.00
2018-10-19T19:11:10.776Z,36.17
2018-10-19T19:14:15.355Z,43.10
2018-10-19T19:17:18.979Z,31.93
2018-10-19T19:20:25.646Z,35.53
2018-10-19T19:23:29.255Z,31.80
2018-10-19T19:26:32.794Z,31.77
2018-10-19T19:29:36.312Z,31.50
2018-10-19T19:32:48.363Z,28.80
2018-10-19T19:35:51.973Z,31.73
2018-10-19T19:38:56.007Z,29.63
2018-10-19T19:42:07.028Z,25.63
2018-10-19T19:45:13.775Z,28.90
2018-10-19T19:48:22.517Z,31.43
2018-10-19T19:51:25.934Z,31.70
2018-10-19T19:54:29.481Z,30.57
2018-10-19T19:57:32.982Z,31.93
2018-10-19T20:00:36.478Z,28.17
2018-10-19T20:03:39.879Z,29.83
2018-10-19T20:06:43.345Z,29.53
2018-10-19T20:09:47.263Z,29.87
2018-10-19T20:12:50.781Z,30.07
2018-10-19T20:15:54.345Z,25.63
2018-10-19T20:18:58.064Z,27.80
2018-10-19T20:22:01.668Z,26.43
2018-10-19T20:25:07.246Z,34.23
2018-10-19T20:28:10.778Z,31.03
2018-10-19T20:31:14.283Z,34.30
2018-10-19T20:34:17.882Z,33.63
2018-10-19T20:37:21.373Z,28.53
2018-10-19T20:40:25.100Z,32.33
2018-10-19T20:43:28.571Z,34.07
2018-10-19T20:46:32.143Z,38.63
2018-10-19T20:49:35.693Z,36.70
2018-10-19T20:52:39.565Z,34.73
2018-10-19T20:55:43.253Z,35.87
2018-10-19T20:58:47.099Z,32.27
2018-10-19T21:01:50.634Z,35.93
2018-10-19T21:04:54.259Z,33.43
2018-10-19T21:07:58.209Z,30.53
2018-10-19T21:11:02.787Z,36.03
2018-10-19T21:14:06.877Z,32.73
2018-10-19T21:17:10.409Z,35.40
2018-10-19T21:20:13.980Z,33.10
2018-10-19T21:23:17.505Z,34.20
2018-10-19T21:26:24.911Z,33.67
2018-10-19T21:29:30.465Z,32.33
2018-10-19T21:32:33.962Z,35.03
2018-10-19T21:35:38.470Z,35.00
2018-10-19T21:38:41.956Z,33.57
2018-10-19T21:41:45.646Z,35.17
2018-10-19T21:44:49.304Z,35.30
2018-10-19T21:47:52.927Z,36.27
2018-10-19T21:50:56.530Z,33.90
2018-10-19T21:54:00.163Z,36.10
2018-10-19T21:57:03.950Z,33.60
2018-10-19T22:00:09.256Z,37.20
2018-10-19T22:03:12.781Z,32.50
2018-10-19T22:06:16.288Z,34.40
2018-10-19T22:09:19.762Z,36.90
2018-10-19T22:12:23.701Z,38.90
2018-10-19T22:15:27.153Z,35.47
2018-10-19T22:18:30.709Z,34.90
2018-10-19T22:21:34.252Z,37.87
2018-10-19T22:24:37.767Z,34.40
2018-10-19T22:27:41.369Z,35.13
2018-10-19T22:30:44.893Z,36.07
2018-10-19T22:33:48.373Z,35.93
2018-10-19T22:36:51.908Z,38.27
2018-10-19T22:39:55.494Z,37.33
2018-10-19T22:42:59.000Z,34.67
2018-10-19T22:46:02.578Z,40.33
2018-10-19T22:49:06.158Z,36.00
2018-10-19T22:52:09.754Z,37.20
2018-10-19T22:55:13.336Z,36.17
2018-10-19T22:58:16.831Z,35.97
2018-10-19T23:01:20.366Z,34.67
2018-10-19T23:04:23.864Z,42.63
2018-10-19T23:07:27.414Z,37.87
2018-10-19T23:10:32.037Z,37.43
2018-10-19T23:13:35.577Z,39.10
2018-10-19T23:16:39.114Z,35.53
2018-10-19T23:19:42.569Z,35.17
2018-10-19T23:22:46.321Z,39.03
2018-10-19T23:25:49.866Z,39.03
2018-10-19T23:28:53.431Z,38.20
2018-10-19T23:31:57.902Z,42.53
2018-10-19T23:35:03.422Z,36.43
2018-10-19T23:38:07.012Z,37.93
2018-10-19T23:41:10.588Z,37.97
2018-10-19T23:44:15.089Z,38.47
2018-10-19T23:47:18.671Z,38.13
2018-10-19T23:50:22.255Z,33.30
2018-10-19T23:53:25.693Z,34.70
2018-10-19T23:56:29.448Z,35.50
2018-10-19T23:59:32.927Z,34.57
